createdAt,value
2023-02-28T00:01:35.639Z,100648.34
2023-02-28T00:04:03.815Z,100657.09
2023-02-28T00:06:31.612Z,100653.63
2023-02-28T00:08:59.352Z,100651.84
2023-02-28T00:11:28.475Z,100658.91
2023-02-28T00:13:57.382Z,100658.88
2023-02-28T00:16:25.260Z,100668.56
2023-02-28T00:18:54.814Z,100666.81
2023-02-28T00:21:23.621Z,100672.09
2023-02-28T00:23:51.452Z,100667.69
2023-02-28T00:26:21.963Z,100679.97
2023-02-28T00:28:50.084Z,100672.06
2023-02-28T00:31:18.770Z,100677.31
2023-02-28T00:33:46.642Z,100669.44
2023-02-28T00:36:14.425Z,100674.72
2023-02-28T00:38:43.042Z,100665.03
2023-02-28T00:41:11.465Z,100675.59
2023-02-28T00:43:41.246Z,100672.06
2023-02-28T00:46:10.412Z,100678.25
2023-02-28T00:48:39.276Z,100677.38
2023-02-28T00:51:08.810Z,100680.00
2023-02-28T00:53:38.298Z,100674.75
2023-02-28T00:56:07.572Z,100680.00
2023-02-28T00:58:37.170Z,100670.31
2023-02-28T01:01:06.955Z,100667.69
2023-02-28T01:03:35.784Z,100679.09
2023-02-28T01:06:03.647Z,100680.00
2023-02-28T01:08:32.645Z,100678.22
2023-02-28T01:11:15.390Z,100672.94
2023-02-28T01:13:45.814Z,100679.13
2023-02-28T01:16:16.637Z,100674.69
2023-02-28T01:18:45.892Z,100676.47
2023-02-28T01:21:19.747Z,100674.72
2023-02-28T01:23:49.640Z,100682.63
2023-02-28T01:26:25.001Z,100692.28
2023-02-28T01:28:55.128Z,100680.88
2023-02-28T01:31:24.210Z,100686.16
2023-02-28T01:33:53.268Z,100682.66
2023-02-28T01:36:25.623Z,100681.75
2023-02-28T01:38:54.359Z,100680.88
2023-02-28T01:41:33.311Z,100680.84
2023-02-28T01:44:59.946Z,100679.13
2023-02-28T01:47:40.000Z,100687.03
2023-02-28T01:50:18.023Z,100675.56
2023-02-28T01:52:48.850Z,100681.75
2023-02-28T01:55:20.595Z,100680.88
2023-02-28T01:57:56.610Z,100671.16
2023-02-28T02:00:28.499Z,100681.72
2023-02-28T02:03:03.212Z,100681.72
2023-02-28T02:05:33.281Z,100667.66
2023-02-28T02:08:13.499Z,100680.84
2023-02-28T02:10:55.113Z,100679.06
2023-02-28T02:14:15.505Z,100678.22
2023-02-28T02:17:12.825Z,100669.41
2023-02-28T02:20:36.066Z,100672.91
2023-02-28T02:23:48.866Z,100684.34
2023-02-28T02:26:38.677Z,100677.28
2023-02-28T02:30:08.506Z,100675.50
2023-02-28T02:33:46.409Z,100670.28
2023-02-28T02:36:22.473Z,100671.13
2023-02-28T02:40:00.943Z,100670.25
2023-02-28T02:42:43.895Z,100667.63
2023-02-28T02:45:29.384Z,100673.78
2023-02-28T02:48:01.489Z,100677.28
2023-02-28T02:50:42.734Z,100676.41
2023-02-28T02:53:12.828Z,100680.84
2023-02-28T02:55:48.345Z,100683.47
2023-02-28T02:58:23.635Z,100680.78
2023-02-28T03:01:00.420Z,100684.34
2023-02-28T03:03:30.969Z,100682.53
2023-02-28T03:06:02.557Z,100663.25
2023-02-28T03:08:39.166Z,100680.78
2023-02-28T03:11:15.973Z,100671.09
2023-02-28T03:14:27.366Z,100682.59
2023-02-28T03:17:16.236Z,100680.81
2023-02-28T03:20:08.147Z,100679.97
2023-02-28T03:23:16.372Z,100677.28
2023-02-28T03:26:09.225Z,100674.63
2023-02-28T03:28:50.826Z,100678.09
2023-02-28T03:31:39.128Z,100682.56
2023-02-28T03:34:25.828Z,100686.94
2023-02-28T03:37:00.786Z,100684.31
2023-02-28T03:39:43.379Z,100678.22
2023-02-28T03:42:23.324Z,100680.84
2023-02-28T03:45:10.377Z,100680.81
2023-02-28T03:48:06.741Z,100682.50
2023-02-28T03:50:47.060Z,100686.03
2023-02-28T03:53:19.372Z,100673.78
2023-02-28T03:55:59.552Z,100672.81
2023-02-28T03:58:45.340Z,100679.91
2023-02-28T04:01:29.894Z,100673.75
2023-02-28T04:03:59.665Z,100675.50
2023-02-28T04:06:28.442Z,100670.22
2023-02-28T04:08:57.096Z,100665.84
2023-02-28T04:11:56.742Z,100669.34
2023-02-28T04:14:25.866Z,100662.31
2023-02-28T04:16:53.868Z,100662.31
2023-02-28T04:19:23.507Z,100656.16
2023-02-28T04:21:55.083Z,100655.28
2023-02-28T04:24:29.101Z,100656.19
2023-02-28T04:26:59.498Z,100653.56
2023-02-28T04:29:31.472Z,100650.94
2023-02-28T04:32:02.998Z,100652.66
2023-02-28T04:34:33.917Z,100650.91
2023-02-28T04:37:13.418Z,100654.34
2023-02-28T04:39:43.949Z,100652.59
2023-02-28T04:42:13.259Z,100654.31
2023-02-28T04:44:41.110Z,100651.69
2023-02-28T04:47:09.832Z,100649.06
2023-02-28T04:49:37.585Z,100655.28
2023-02-28T04:52:05.604Z,100654.41
2023-02-28T04:54:34.301Z,100650.88
2023-02-28T04:57:02.673Z,100650.00
2023-02-28T04:59:30.438Z,100650.94
2023-02-28T05:01:58.208Z,100647.41
2023-02-28T05:04:27.008Z,100649.16
2023-02-28T05:06:54.809Z,100649.09
2023-02-28T05:09:22.563Z,100651.75
2023-02-28T05:11:50.302Z,100653.53
2023-02-28T05:14:18.066Z,100644.72
2023-02-28T05:16:45.868Z,100647.34
2023-02-28T05:19:14.536Z,100645.59
2023-02-28T05:21:55.114Z,100647.38
2023-02-28T05:24:26.012Z,100646.53
2023-02-28T05:26:55.897Z,100654.41
2023-02-28T05:29:24.769Z,100654.41
2023-02-28T05:31:52.795Z,100654.44
2023-02-28T05:34:20.665Z,100658.84
2023-02-28T05:36:48.513Z,100662.28
2023-02-28T05:39:16.416Z,100662.31
2023-02-28T05:41:45.149Z,100665.81
2023-02-28T05:44:13.586Z,100675.44
2023-02-28T05:46:42.357Z,100665.81
2023-02-28T05:49:10.165Z,100673.69
2023-02-28T05:51:40.953Z,100670.22
2023-02-28T05:54:09.921Z,100670.25
2023-02-28T05:56:40.215Z,100673.72
2023-02-28T05:59:08.590Z,100676.34
2023-02-28T06:01:49.139Z,100679.88
2023-02-28T06:04:31.616Z,100681.63
2023-02-28T06:07:01.052Z,100684.22
2023-02-28T06:09:29.189Z,100684.22
2023-02-28T06:12:00.836Z,100687.72
2023-02-28T06:14:28.638Z,100697.38
2023-02-28T06:16:58.981Z,100697.25
2023-02-28T06:19:27.647Z,100702.66
2023-02-28T06:21:58.000Z,100708.81
2023-02-28T06:24:32.345Z,100714.91
2023-02-28T06:27:06.108Z,100710.34
2023-02-28T06:29:37.021Z,100715.66
2023-02-28T06:32:04.951Z,100713.63
2023-02-28T06:34:37.646Z,100708.28
2023-02-28T06:37:05.542Z,100720.59
2023-02-28T06:39:34.375Z,100723.13
2023-02-28T06:42:02.116Z,100725.72
2023-02-28T06:44:36.497Z,100726.44
2023-02-28T06:47:07.198Z,100725.47
2023-02-28T06:49:38.013Z,100730.72
2023-02-28T06:52:06.902Z,100725.25
2023-02-28T06:54:34.659Z,100726.06
2023-02-28T06:57:03.335Z,100727.03
2023-02-28T06:59:31.127Z,100733.25
2023-02-28T07:02:00.198Z,100727.59
2023-02-28T07:04:29.575Z,100740.13
2023-02-28T07:06:58.400Z,100741.03
2023-02-28T07:09:31.115Z,100739.47
2023-02-28T07:11:58.912Z,100735.72
2023-02-28T07:14:27.122Z,100738.13
2023-02-28T07:16:54.804Z,100733.97
2023-02-28T07:19:22.599Z,100738.44
2023-02-28T07:21:52.207Z,100740.38
2023-02-28T07:24:21.903Z,100744.72
2023-02-28T07:26:49.617Z,100740.94
2023-02-28T07:29:17.400Z,100741.72
2023-02-28T07:31:45.228Z,100748.84
2023-02-28T07:34:13.313Z,100747.31
2023-02-28T07:36:42.037Z,100742.72
2023-02-28T07:39:11.335Z,100740.13
2023-02-28T07:41:44.397Z,100747.09
2023-02-28T07:44:13.220Z,100744.41
2023-02-28T07:46:41.100Z,100746.00
2023-02-28T07:49:09.832Z,100745.72
2023-02-28T07:51:37.750Z,100746.94
2023-02-28T07:54:06.732Z,100750.06
2023-02-28T07:56:34.642Z,100749.34
2023-02-28T07:59:02.793Z,100750.75
2023-02-28T08:01:31.785Z,100755.94
2023-02-28T08:04:00.631Z,100744.50
2023-02-28T08:06:28.531Z,100754.81
2023-02-28T08:08:57.726Z,100755.59
2023-02-28T08:11:26.413Z,100756.00
2023-02-28T08:13:56.890Z,100758.94
2023-02-28T08:16:24.691Z,100752.88
2023-02-28T08:18:54.312Z,100753.25
2023-02-28T08:21:23.352Z,100760.03
2023-02-28T08:23:52.789Z,100763.94
2023-02-28T08:26:22.553Z,100764.13
2023-02-28T08:28:50.864Z,100764.06
2023-02-28T08:31:19.862Z,100766.13
2023-02-28T08:33:49.760Z,100763.03
2023-02-28T08:36:18.867Z,100765.06
2023-02-28T08:38:48.537Z,100775.63
2023-02-28T08:41:16.346Z,100771.81
2023-02-28T08:43:45.435Z,100766.63
2023-02-28T08:46:15.463Z,100763.72
2023-02-28T08:48:44.966Z,100767.66
2023-02-28T08:51:22.559Z,100764.31
2023-02-28T08:53:50.565Z,100767.53
2023-02-28T08:56:19.671Z,100760.88
2023-02-28T08:58:50.411Z,100764.06
2023-02-28T09:01:29.547Z,100776.63
2023-02-28T09:03:59.194Z,100767.88
2023-02-28T09:06:29.934Z,100766.75
2023-02-28T09:09:04.280Z,100765.63
2023-02-28T09:11:32.153Z,100767.06
2023-02-28T09:14:01.728Z,100764.88
2023-02-28T09:16:29.612Z,100768.75
2023-02-28T09:18:57.507Z,100774.56
2023-02-28T09:21:27.934Z,100770.41
2023-02-28T09:23:56.816Z,100777.13
2023-02-28T09:26:34.929Z,100784.97
2023-02-28T09:29:12.348Z,100779.63
2023-02-28T09:31:41.240Z,100778.22
2023-02-28T09:34:09.202Z,100779.00
2023-02-28T09:36:45.502Z,100778.63
2023-02-28T09:39:16.727Z,100781.03
2023-02-28T09:41:52.499Z,100780.44
2023-02-28T09:44:46.007Z,100774.28
2023-02-28T09:47:49.098Z,100773.75
2023-02-28T09:50:37.202Z,100761.34
2023-02-28T09:53:28.138Z,100764.59
2023-02-28T09:56:02.937Z,100760.56
2023-02-28T09:58:55.185Z,100763.44
2023-02-28T10:01:52.478Z,100754.94
2023-02-28T10:04:52.858Z,100753.38
2023-02-28T10:08:36.840Z,100749.41
2023-02-28T10:11:16.258Z,100763.19
2023-02-28T10:14:13.386Z,100749.88
2023-02-28T10:16:58.215Z,100742.88
2023-02-28T10:19:52.755Z,100747.75
2023-02-28T10:22:46.323Z,100752.44
2023-02-28T10:25:28.449Z,100754.91
2023-02-28T10:28:14.194Z,100752.28
2023-02-28T10:30:51.961Z,100751.41
2023-02-28T10:33:35.392Z,100749.69
2023-02-28T10:36:10.854Z,100741.47
2023-02-28T10:38:41.699Z,100745.56
2023-02-28T10:41:35.862Z,100744.78
2023-02-28T10:44:23.478Z,100742.66
2023-02-28T10:46:53.156Z,100745.94
2023-02-28T10:49:30.244Z,100747.44
2023-02-28T10:52:02.459Z,100744.53
2023-02-28T10:54:36.505Z,100740.34
2023-02-28T10:57:26.338Z,100736.09
2023-02-28T11:00:20.012Z,100728.72
2023-02-28T11:02:47.859Z,100734.53
2023-02-28T11:05:31.601Z,100732.00
2023-02-28T11:08:17.680Z,100723.47
2023-02-28T11:11:02.146Z,100730.13
2023-02-28T11:13:36.930Z,100727.53
2023-02-28T11:16:13.151Z,100733.56
2023-02-28T11:18:56.928Z,100735.66
2023-02-28T11:21:41.431Z,100724.34
2023-02-28T11:24:31.527Z,100728.84
2023-02-28T11:26:59.558Z,100722.47
2023-02-28T11:29:33.666Z,100713.59
2023-02-28T11:32:23.456Z,100727.81
2023-02-28T11:35:37.567Z,100714.66
2023-02-28T11:38:14.029Z,100716.31
2023-02-28T11:41:08.918Z,100710.31
2023-02-28T11:44:05.299Z,100709.16
2023-02-28T11:46:51.412Z,100698.91
2023-02-28T11:50:04.181Z,100699.75
2023-02-28T11:53:12.238Z,100701.13
2023-02-28T11:56:24.736Z,100702.34
2023-02-28T11:59:39.768Z,100702.34
2023-02-28T12:02:20.065Z,100707.06
2023-02-28T12:05:32.414Z,100705.84
2023-02-28T12:08:46.618Z,100701.56
2023-02-28T12:12:20.515Z,100689.97
2023-02-28T12:15:26.368Z,100686.47
2023-02-28T12:18:19.809Z,100700.72
2023-02-28T12:21:03.113Z,100690.84
2023-02-28T12:24:25.645Z,100695.53
2023-02-28T12:26:56.865Z,100689.06
2023-02-28T12:29:41.635Z,100691.56
2023-02-28T12:32:54.448Z,100685.06
2023-02-28T12:35:36.409Z,100685.06
2023-02-28T12:38:45.762Z,100683.34
2023-02-28T12:41:28.327Z,100679.41
2023-02-28T12:44:15.634Z,100676.16
2023-02-28T12:46:53.295Z,100682.69
2023-02-28T12:49:50.971Z,100671.69
2023-02-28T12:52:40.560Z,100674.75
2023-02-28T12:55:42.323Z,100668.09
2023-02-28T12:58:29.123Z,100665.44
2023-02-28T13:01:44.781Z,100664.50
2023-02-28T13:04:34.615Z,100656.25
2023-02-28T13:07:26.698Z,100649.19
2023-02-28T13:10:01.147Z,100650.47
2023-02-28T13:12:30.499Z,100646.44
2023-02-28T13:15:13.610Z,100649.47
2023-02-28T13:17:42.860Z,100645.09
2023-02-28T13:20:27.646Z,100652.63
2023-02-28T13:22:58.427Z,100645.63
2023-02-28T13:25:48.201Z,100643.78
2023-02-28T13:28:54.314Z,100643.03
2023-02-28T13:31:22.146Z,100637.69
2023-02-28T13:34:00.521Z,100637.25
2023-02-28T13:36:32.805Z,100641.88
2023-02-28T13:39:37.868Z,100631.81
2023-02-28T13:42:46.211Z,100639.34
2023-02-28T13:45:13.871Z,100635.44
2023-02-28T13:47:56.551Z,100636.63
2023-02-28T13:50:39.976Z,100635.69
2023-02-28T13:53:16.926Z,100637.91
2023-02-28T13:56:08.123Z,100633.75
2023-02-28T13:59:26.108Z,100640.88
2023-02-28T14:02:21.370Z,100634.50
2023-02-28T14:08:29.534Z,100615.47
2023-02-28T14:11:24.347Z,100621.13
2023-02-28T14:13:53.046Z,100614.78
2023-02-28T14:16:30.702Z,100620.16
2023-02-28T14:19:10.659Z,100612.38
2023-02-28T14:21:59.413Z,100609.09
2023-02-28T14:25:12.099Z,100608.91
2023-02-28T14:28:43.297Z,100605.38
2023-02-28T14:31:26.718Z,100605.47
2023-02-28T14:34:44.476Z,100608.72
2023-02-28T14:37:21.884Z,100613.28
2023-02-28T14:39:50.818Z,100605.66
2023-02-28T14:42:39.077Z,100607.66
2023-02-28T14:45:19.422Z,100604.00
2023-02-28T14:47:47.762Z,100609.56
2023-02-28T14:50:27.851Z,100611.84
2023-02-28T14:52:56.842Z,100607.00
2023-02-28T14:55:37.257Z,100608.13
2023-02-28T14:58:19.051Z,100600.06
2023-02-28T15:00:54.862Z,100600.34
2023-02-28T15:03:39.723Z,100602.97
2023-02-28T15:06:19.130Z,100600.78
2023-02-28T15:08:47.371Z,100608.72
2023-02-28T15:11:22.337Z,100607.66
2023-02-28T15:13:56.557Z,100613.91
2023-02-28T15:16:42.566Z,100610.03
2023-02-28T15:19:32.591Z,100615.19
2023-02-28T15:22:13.529Z,100617.09
2023-02-28T15:24:54.575Z,100612.50
2023-02-28T15:27:33.894Z,100611.56
2023-02-28T15:30:35.342Z,100617.25
2023-02-28T15:33:17.976Z,100611.78
2023-02-28T15:35:47.024Z,100608.66
2023-02-28T15:38:28.037Z,100610.13
2023-02-28T15:40:59.665Z,100618.56
2023-02-28T15:43:40.436Z,100608.75
2023-02-28T15:46:16.252Z,100611.97
2023-02-28T15:48:48.684Z,100599.16
2023-02-28T15:51:38.523Z,100600.13
2023-02-28T15:54:25.625Z,100609.28
2023-02-28T15:57:02.298Z,100602.34
2023-02-28T15:59:33.132Z,100607.28
2023-02-28T16:02:11.840Z,100601.75
2023-02-28T16:05:07.250Z,100600.88
2023-02-28T16:07:44.556Z,100599.34
2023-02-28T16:10:17.678Z,100597.38
2023-02-28T16:12:47.468Z,100600.72
2023-02-28T16:15:27.979Z,100598.91
2023-02-28T16:17:59.643Z,100606.88
2023-02-28T16:20:32.262Z,100607.03
2023-02-28T16:23:02.638Z,100612.81
2023-02-28T16:25:44.926Z,100607.66
2023-02-28T16:28:37.893Z,100618.91
2023-02-28T16:31:09.179Z,100614.44
2023-02-28T16:33:38.676Z,100616.44
2023-02-28T16:36:13.755Z,100612.97
2023-02-28T16:38:42.488Z,100613.50
2023-02-28T16:41:28.417Z,100617.97
2023-02-28T16:44:01.440Z,100624.06
2023-02-28T16:46:36.509Z,100619.84
2023-02-28T16:49:06.401Z,100619.34
2023-02-28T16:51:35.964Z,100624.25
2023-02-28T16:54:05.984Z,100625.69
2023-02-28T16:56:36.431Z,100623.81
2023-02-28T16:59:05.110Z,100628.81
2023-02-28T17:01:34.523Z,100631.34
2023-02-28T17:04:03.583Z,100637.34
2023-02-28T17:06:32.819Z,100634.03
2023-02-28T17:09:00.853Z,100636.69
2023-02-28T17:11:30.777Z,100640.91
2023-02-28T17:13:59.628Z,100641.16
2023-02-28T17:16:35.981Z,100640.53
2023-02-28T17:19:10.295Z,100639.41
2023-02-28T17:21:42.744Z,100637.44
2023-02-28T17:24:22.118Z,100635.84
2023-02-28T17:27:02.506Z,100634.59
2023-02-28T17:29:32.046Z,100634.34
2023-02-28T17:32:03.169Z,100637.88
2023-02-28T17:34:38.362Z,100639.50
2023-02-28T17:37:09.994Z,100638.13
2023-02-28T17:39:38.716Z,100636.13
2023-02-28T17:42:09.132Z,100639.50
2023-02-28T17:44:38.886Z,100632.56
2023-02-28T17:47:11.024Z,100636.91
2023-02-28T17:49:40.584Z,100640.38
2023-02-28T17:52:11.391Z,100640.91
2023-02-28T17:54:40.340Z,100641.41
2023-02-28T17:57:17.485Z,100641.69
2023-02-28T17:59:47.416Z,100645.00
2023-02-28T18:02:18.024Z,100640.22
2023-02-28T18:04:47.488Z,100641.94
2023-02-28T18:07:15.284Z,100647.66
2023-02-28T18:09:44.773Z,100646.09
2023-02-28T18:12:14.262Z,100647.09
2023-02-28T18:14:43.704Z,100653.28
2023-02-28T18:17:13.967Z,100652.59
2023-02-28T18:19:43.687Z,100648.69
2023-02-28T18:22:12.437Z,100651.03
2023-02-28T18:24:41.190Z,100650.31
2023-02-28T18:27:11.780Z,100647.97
2023-02-28T18:29:41.796Z,100648.44
2023-02-28T18:32:10.627Z,100647.84
2023-02-28T18:34:40.170Z,100648.31
2023-02-28T18:37:11.734Z,100642.41
2023-02-28T18:39:40.719Z,100649.69
2023-02-28T18:42:09.095Z,100653.13
2023-02-28T18:44:39.100Z,100647.28
2023-02-28T18:47:09.021Z,100648.38
2023-02-28T18:49:38.111Z,100642.19
2023-02-28T18:52:06.851Z,100638.66
2023-02-28T18:54:36.647Z,100652.22
2023-02-28T18:57:05.987Z,100644.47
2023-02-28T18:59:34.690Z,100647.25
2023-02-28T19:02:03.396Z,100641.97
2023-02-28T19:04:33.417Z,100644.69
2023-02-28T19:07:03.022Z,100644.75
2023-02-28T19:09:32.465Z,100643.13
2023-02-28T19:12:01.945Z,100640.38
2023-02-28T19:14:32.305Z,100638.59
2023-02-28T19:17:01.004Z,100646.50
2023-02-28T19:19:30.969Z,100639.81
2023-02-28T19:22:00.526Z,100644.28
2023-02-28T19:24:30.092Z,100644.22
2023-02-28T19:26:59.792Z,100649.81
2023-02-28T19:29:29.282Z,100645.94
2023-02-28T19:31:58.944Z,100642.31
2023-02-28T19:34:28.586Z,100648.19
2023-02-28T19:36:58.103Z,100647.72
2023-02-28T19:39:26.848Z,100646.00
2023-02-28T19:41:55.562Z,100646.88
2023-02-28T19:44:25.201Z,100650.00
2023-02-28T19:46:54.672Z,100644.28
2023-02-28T19:49:25.973Z,100649.59
2023-02-28T19:51:55.679Z,100646.09
2023-02-28T19:54:26.666Z,100638.91
2023-02-28T19:56:57.757Z,100645.13
2023-02-28T19:59:38.325Z,100652.09
2023-02-28T20:02:20.486Z,100649.66
2023-02-28T20:04:58.713Z,100648.72
2023-02-28T20:07:30.331Z,100645.34
2023-02-28T20:10:00.939Z,100643.03
2023-02-28T20:12:30.461Z,100640.47
2023-02-28T20:15:00.007Z,100647.28
2023-02-28T20:17:30.675Z,100640.78
2023-02-28T20:19:59.378Z,100640.97
2023-02-28T20:22:28.893Z,100639.97
2023-02-28T20:24:58.391Z,100640.19
2023-02-28T20:27:28.023Z,100641.78
2023-02-28T20:29:57.461Z,100642.75
2023-02-28T20:32:26.612Z,100647.44
2023-02-28T20:34:55.322Z,100643.41
2023-02-28T20:37:25.132Z,100637.47
2023-02-28T20:39:54.693Z,100643.75
2023-02-28T20:42:22.575Z,100637.53
2023-02-28T20:44:53.008Z,100641.91
2023-02-28T20:47:22.593Z,100639.19
2023-02-28T20:49:52.181Z,100632.16
2023-02-28T20:52:21.809Z,100625.16
2023-02-28T20:54:51.360Z,100632.91
2023-02-28T20:57:20.836Z,100636.47
2023-02-28T20:59:50.356Z,100638.53
2023-02-28T21:02:21.458Z,100634.78
2023-02-28T21:04:51.025Z,100634.56
2023-02-28T21:07:20.531Z,100628.38
2023-02-28T21:09:50.110Z,100626.69
2023-02-28T21:12:19.709Z,100631.06
2023-02-28T21:14:49.313Z,100627.97
2023-02-28T21:17:17.064Z,100624.78
2023-02-28T21:19:47.174Z,100628.81
2023-02-28T21:22:16.910Z,100620.41
2023-02-28T21:24:46.491Z,100629.28
2023-02-28T21:27:16.574Z,100622.47
2023-02-28T21:29:46.079Z,100622.66
2023-02-28T21:32:15.789Z,100609.38
2023-02-28T21:34:44.562Z,100620.66
2023-02-28T21:37:13.216Z,100639.34
2023-02-28T21:39:42.680Z,100620.81
2023-02-28T21:42:13.157Z,100632.41
2023-02-28T21:44:41.952Z,100633.28
2023-02-28T21:47:10.663Z,100626.19
2023-02-28T21:49:40.134Z,100632.34
2023-02-28T21:52:08.828Z,100627.03
2023-02-28T21:54:38.370Z,100624.13
2023-02-28T21:57:07.965Z,100621.66
2023-02-28T21:59:37.690Z,100618.06
2023-02-28T22:02:10.824Z,100621.72
2023-02-28T22:04:40.388Z,100614.56
2023-02-28T22:07:09.129Z,100616.34
2023-02-28T22:09:38.671Z,100620.72
2023-02-28T22:12:08.662Z,100627.91
2023-02-28T22:14:41.830Z,100627.69
2023-02-28T22:17:10.569Z,100629.50
2023-02-28T22:19:39.415Z,100625.13
2023-02-28T22:22:09.008Z,100627.59
2023-02-28T22:24:38.608Z,100627.59
2023-02-28T22:27:08.230Z,100631.84
2023-02-28T22:29:37.756Z,100627.34
2023-02-28T22:32:11.186Z,100630.81
2023-02-28T22:34:41.138Z,100635.28
2023-02-28T22:37:09.852Z,100640.69
2023-02-28T22:39:39.492Z,100636.00
2023-02-28T22:42:09.879Z,100628.47
2023-02-28T22:44:38.535Z,100635.66
2023-02-28T22:47:08.276Z,100643.63
2023-02-28T22:49:37.929Z,100636.38
2023-02-28T22:52:07.453Z,100638.31
2023-02-28T22:54:36.970Z,100630.78
2023-02-28T22:57:06.412Z,100640.69
2023-02-28T22:59:35.920Z,100640.41
2023-02-28T23:02:04.606Z,100640.78
2023-02-28T23:04:33.389Z,100647.00
2023-02-28T23:07:02.912Z,100642.50
2023-02-28T23:09:31.624Z,100639.31
2023-02-28T23:12:00.317Z,100643.63
2023-02-28T23:14:29.025Z,100641.63
2023-02-28T23:16:59.030Z,100638.56
2023-02-28T23:19:31.163Z,100638.50
2023-02-28T23:22:02.987Z,100632.66
2023-02-28T23:24:34.967Z,100637.03
2023-02-28T23:27:07.190Z,100635.22
2023-02-28T23:29:37.417Z,100639.47
2023-02-28T23:32:07.210Z,100637.16
2023-02-28T23:34:36.816Z,100631.91
2023-02-28T23:37:06.568Z,100634.53
2023-02-28T23:39:36.041Z,100609.31
2023-02-28T23:42:05.543Z,100637.53
2023-02-28T23:44:35.314Z,100631.28
2023-02-28T23:47:04.883Z,100617.78
2023-02-28T23:49:33.653Z,100622.25
2023-02-28T23:52:02.363Z,100624.94
2023-02-28T23:54:31.244Z,100623.22
2023-02-28T23:57:00.747Z,100630.50
2023-02-28T23:59:30.254Z,100619.81
